createdAt,value
2023-03-04T00:00:32.784Z,42.38
2023-03-04T00:02:35.409Z,41.65
2023-03-04T00:04:37.967Z,39.67
2023-03-04T00:06:40.557Z,39.53
2023-03-04T00:08:44.458Z,40.55
2023-03-04T00:10:47.438Z,41.38
2023-03-04T00:12:49.985Z,41.15
2023-03-04T00:14:52.574Z,39.65
2023-03-04T00:16:55.139Z,39.45
2023-03-04T00:18:58.411Z,40.53
2023-03-04T00:21:01.312Z,40.38
2023-03-04T00:23:03.878Z,40.50
2023-03-04T00:25:08.696Z,40.90
2023-03-04T00:27:11.284Z,39.45
2023-03-04T00:29:13.810Z,37.72
2023-03-04T00:31:16.530Z,39.50
2023-03-04T00:33:19.167Z,38.95
2023-03-04T00:35:21.763Z,37.78
2023-03-04T00:37:24.383Z,37.33
2023-03-04T00:39:26.907Z,37.45
2023-03-04T00:41:30.823Z,38.63
2023-03-04T00:43:33.616Z,37.72
2023-03-04T00:45:36.269Z,37.92
2023-03-04T00:47:38.983Z,39.53
2023-03-04T00:49:41.554Z,38.72
2023-03-04T00:51:44.105Z,38.25
2023-03-04T00:53:47.403Z,38.58
2023-03-04T00:55:49.986Z,40.22
2023-03-04T00:57:53.924Z,39.25
2023-03-04T00:59:56.584Z,40.72
2023-03-04T01:01:59.143Z,39.90
2023-03-04T01:04:01.698Z,37.22
2023-03-04T01:06:04.384Z,37.63
2023-03-04T01:08:07.415Z,41.90
2023-03-04T01:10:11.991Z,38.83
2023-03-04T01:12:14.569Z,40.15
2023-03-04T01:14:18.523Z,39.78
2023-03-04T01:16:21.162Z,37.80
2023-03-04T01:18:23.774Z,38.17
2023-03-04T01:20:26.535Z,38.30
2023-03-04T01:22:29.109Z,39.35
2023-03-04T01:24:31.762Z,39.08
2023-03-04T01:26:34.433Z,39.28
2023-03-04T01:28:36.976Z,38.33
2023-03-04T01:30:41.035Z,39.08
2023-03-04T01:32:43.624Z,40.58
2023-03-04T01:34:46.232Z,39.13
2023-03-04T01:36:48.769Z,41.72
2023-03-04T01:38:51.345Z,39.70
2023-03-04T01:40:54.407Z,39.70
2023-03-04T01:42:56.001Z,41.85
2023-03-04T01:47:02.397Z,39.92
2023-03-04T01:49:05.068Z,40.85
2023-03-04T01:51:13.562Z,40.90
2023-03-04T01:53:21.950Z,41.45
2023-03-04T01:55:24.716Z,41.22
2023-03-04T01:57:27.652Z,40.78
2023-03-04T01:59:32.583Z,41.47
2023-03-04T02:01:35.268Z,40.13
2023-03-04T02:03:39.833Z,37.97
2023-03-04T02:05:45.366Z,39.20
2023-03-04T02:07:48.046Z,39.00
2023-03-04T02:09:50.610Z,37.97
2023-03-04T02:11:53.493Z,37.33
2023-03-04T02:13:56.143Z,37.20
2023-03-04T02:15:58.730Z,37.70
2023-03-04T02:18:01.809Z,37.85
2023-03-04T02:20:16.524Z,37.90
2023-03-04T02:22:19.156Z,37.40
2023-03-04T02:24:27.857Z,39.20
2023-03-04T02:26:32.828Z,37.03
2023-03-04T02:28:35.408Z,37.10
2023-03-04T02:30:38.135Z,38.80
2023-03-04T02:32:40.709Z,38.50
2023-03-04T02:34:47.772Z,38.85
2023-03-04T02:36:52.870Z,37.72
2023-03-04T02:38:56.856Z,41.10
2023-03-04T02:40:59.968Z,38.60
2023-03-04T02:43:03.876Z,36.85
2023-03-04T02:45:07.627Z,37.85
2023-03-04T02:47:12.145Z,38.35
2023-03-04T02:49:14.781Z,38.15
2023-03-04T02:51:17.743Z,37.65
2023-03-04T02:53:21.694Z,38.15
2023-03-04T02:55:24.240Z,39.40
2023-03-04T02:57:26.759Z,41.13
2023-03-04T02:59:31.258Z,41.25
2023-03-04T03:01:33.875Z,42.35
2023-03-04T03:03:36.510Z,37.65
2023-03-04T03:05:42.475Z,40.33
2023-03-04T03:07:45.231Z,37.75
2023-03-04T03:09:50.417Z,36.65
2023-03-04T03:11:52.962Z,38.15
2023-03-04T03:13:55.505Z,37.00
2023-03-04T03:15:59.412Z,38.55
2023-03-04T03:18:01.988Z,37.35
2023-03-04T03:20:05.454Z,37.55
2023-03-04T03:22:08.088Z,39.53
2023-03-04T03:24:10.626Z,39.60
2023-03-04T03:26:13.242Z,39.53
2023-03-04T03:28:15.795Z,40.33
2023-03-04T03:30:18.412Z,38.67
2023-03-04T03:32:22.370Z,38.78
2023-03-04T03:34:25.166Z,38.63
2023-03-04T03:36:28.767Z,38.20
2023-03-04T03:38:31.442Z,41.45
2023-03-04T03:40:34.052Z,39.85
2023-03-04T03:42:36.723Z,40.88
2023-03-04T03:44:39.250Z,38.03
2023-03-04T03:46:41.820Z,41.25
2023-03-04T03:48:45.728Z,40.42
2023-03-04T03:50:48.315Z,41.10
2023-03-04T03:52:50.858Z,42.60
2023-03-04T03:54:56.105Z,41.47
2023-03-04T03:56:58.660Z,40.90
2023-03-04T03:59:01.221Z,39.85
2023-03-04T04:01:03.802Z,38.45
2023-03-04T04:03:06.776Z,40.72
2023-03-04T04:05:11.634Z,42.50
2023-03-04T04:07:14.181Z,40.92
2023-03-04T04:09:16.750Z,40.80
2023-03-04T04:11:19.706Z,40.65
2023-03-04T04:13:22.267Z,42.53
2023-03-04T04:15:24.802Z,39.28
2023-03-04T04:17:27.504Z,40.22
2023-03-04T04:19:30.070Z,41.42
2023-03-04T04:21:34.127Z,38.55
2023-03-04T04:23:36.772Z,40.67
2023-03-04T04:25:39.330Z,38.40
2023-03-04T04:27:41.878Z,36.97
2023-03-04T04:29:44.450Z,38.65
2023-03-04T04:31:46.987Z,39.67
2023-03-04T04:33:49.527Z,38.47
2023-03-04T04:35:52.169Z,37.63
2023-03-04T04:37:56.077Z,39.00
2023-03-04T04:39:58.616Z,39.47
2023-03-04T04:42:01.248Z,40.67
2023-03-04T04:44:03.937Z,40.60
2023-03-04T04:46:06.610Z,37.40
2023-03-04T04:48:09.188Z,37.53
2023-03-04T04:50:12.811Z,36.97
2023-03-04T04:52:15.392Z,37.55
2023-03-04T04:54:19.300Z,37.72
2023-03-04T04:56:25.043Z,36.58
2023-03-04T04:58:27.569Z,39.50
2023-03-04T05:00:30.139Z,36.80
2023-03-04T05:02:36.256Z,37.72
2023-03-04T05:04:38.840Z,37.00
2023-03-04T05:06:41.520Z,37.83
2023-03-04T05:08:44.060Z,36.67
2023-03-04T05:10:48.762Z,37.30
2023-03-04T05:12:51.393Z,37.20
2023-03-04T05:14:53.944Z,36.10
2023-03-04T05:16:56.516Z,38.70
2023-03-04T05:18:59.069Z,39.30
2023-03-04T05:21:03.556Z,39.47
2023-03-04T05:23:06.218Z,36.92
2023-03-04T05:25:09.317Z,37.45
2023-03-04T05:27:13.322Z,37.60
2023-03-04T05:29:15.970Z,39.13
2023-03-04T05:31:18.846Z,39.53
2023-03-04T05:33:21.857Z,38.83
2023-03-04T05:35:24.706Z,36.92
2023-03-04T05:37:27.942Z,38.75
2023-03-04T05:39:30.468Z,38.75
2023-03-04T05:41:33.016Z,39.53
2023-03-04T05:43:38.403Z,40.83
2023-03-04T05:45:41.495Z,39.83
2023-03-04T05:47:44.069Z,39.20
2023-03-04T05:49:46.623Z,38.38
2023-03-04T05:51:49.170Z,39.85
2023-03-04T05:53:51.728Z,37.50
2023-03-04T05:55:54.595Z,40.50
2023-03-04T05:57:57.329Z,39.55
2023-03-04T06:00:01.314Z,38.20
2023-03-04T06:02:03.897Z,37.15
2023-03-04T06:04:06.581Z,37.28
2023-03-04T06:06:09.291Z,40.00
2023-03-04T06:08:12.392Z,36.00
2023-03-04T06:10:17.506Z,37.42
2023-03-04T06:12:20.166Z,35.55
2023-03-04T06:14:22.747Z,37.97
2023-03-04T06:16:26.673Z,37.75
2023-03-04T06:18:29.860Z,37.28
2023-03-04T06:20:32.733Z,36.45
2023-03-04T06:22:35.764Z,37.22
2023-03-04T06:24:38.655Z,37.15
2023-03-04T06:26:41.235Z,35.00
2023-03-04T06:28:44.766Z,35.38
2023-03-04T06:30:47.365Z,35.75
2023-03-04T06:32:51.235Z,37.90
2023-03-04T06:34:53.793Z,36.95
2023-03-04T06:36:56.378Z,37.90
2023-03-04T06:38:58.937Z,38.00
2023-03-04T06:41:08.004Z,37.63
2023-03-04T06:43:10.537Z,35.88
2023-03-04T06:45:13.608Z,37.25
2023-03-04T06:47:16.562Z,38.78
2023-03-04T06:49:20.461Z,37.15
2023-03-04T06:51:22.997Z,36.60
2023-03-04T06:53:25.606Z,37.70
2023-03-04T06:55:28.276Z,37.97
2023-03-04T06:57:30.859Z,38.15
2023-03-04T06:59:33.425Z,37.65
2023-03-04T07:01:36.622Z,37.58
2023-03-04T07:03:39.249Z,37.42
2023-03-04T07:05:43.473Z,36.10
2023-03-04T07:07:46.159Z,36.72
2023-03-04T07:09:48.714Z,35.95
2023-03-04T07:11:51.241Z,37.92
2023-03-04T07:13:54.207Z,38.78
2023-03-04T07:15:56.752Z,36.85
2023-03-04T07:17:59.336Z,37.50
2023-03-04T07:20:01.862Z,36.85
2023-03-04T07:22:05.774Z,39.50
2023-03-04T07:24:08.355Z,40.13
2023-03-04T07:26:10.967Z,38.22
2023-03-04T07:28:13.617Z,37.42
2023-03-04T07:30:16.505Z,40.42
2023-03-04T07:32:19.206Z,37.88
2023-03-04T07:34:21.853Z,37.80
2023-03-04T07:36:27.589Z,40.13
2023-03-04T07:38:31.513Z,38.25
2023-03-04T07:40:34.632Z,39.03
2023-03-04T07:42:37.219Z,39.10
2023-03-04T07:44:39.861Z,37.03
2023-03-04T07:46:42.414Z,37.67
2023-03-04T07:48:45.017Z,37.88
2023-03-04T07:50:47.554Z,38.33
2023-03-04T07:52:50.906Z,37.60
2023-03-04T07:54:54.886Z,39.40
2023-03-04T07:56:57.450Z,37.13
2023-03-04T07:59:00.314Z,38.22
2023-03-04T08:01:02.871Z,38.70
2023-03-04T08:03:05.499Z,38.67
2023-03-04T08:05:08.892Z,38.17
2023-03-04T08:07:11.486Z,41.60
2023-03-04T08:09:14.068Z,35.83
2023-03-04T08:11:20.440Z,35.92
2023-03-04T08:13:25.762Z,34.80
2023-03-04T08:15:32.759Z,35.72
2023-03-04T08:17:35.710Z,37.05
2023-03-04T08:19:38.269Z,34.58
2023-03-04T08:21:40.855Z,33.90
2023-03-04T08:23:43.678Z,36.13
2023-03-04T08:25:46.766Z,34.47
2023-03-04T08:27:50.661Z,35.30
2023-03-04T08:29:53.223Z,32.17
2023-03-04T08:31:56.683Z,31.92
2023-03-04T08:33:59.412Z,30.48
2023-03-04T08:36:01.992Z,32.88
2023-03-04T08:38:04.617Z,31.67
2023-03-04T08:40:08.339Z,31.90
2023-03-04T08:42:10.970Z,30.20
2023-03-04T08:44:15.456Z,29.77
2023-03-04T08:46:18.111Z,28.83
2023-03-04T08:48:21.548Z,27.92
2023-03-04T08:50:24.117Z,27.45
2023-03-04T08:52:26.985Z,27.48
2023-03-04T08:54:29.515Z,27.45
2023-03-04T08:56:32.232Z,28.05
2023-03-04T08:58:35.259Z,28.10
2023-03-04T09:00:42.897Z,27.10
2023-03-04T09:02:45.456Z,28.15
2023-03-04T09:04:48.034Z,27.60
2023-03-04T09:06:52.259Z,28.38
2023-03-04T09:08:56.170Z,28.02
2023-03-04T09:10:58.748Z,28.30
2023-03-04T09:13:01.763Z,28.77
2023-03-04T09:15:11.662Z,26.92
2023-03-04T09:17:15.913Z,27.98
2023-03-04T09:19:18.504Z,27.05
2023-03-04T09:21:21.071Z,27.23
2023-03-04T09:23:24.091Z,27.17
2023-03-04T09:25:26.787Z,28.55
2023-03-04T09:27:29.404Z,27.92
2023-03-04T09:29:31.980Z,26.52
2023-03-04T09:31:34.597Z,26.33
2023-03-04T09:33:38.679Z,26.60
2023-03-04T09:35:41.647Z,25.45
2023-03-04T09:37:44.585Z,24.27
2023-03-04T09:39:47.181Z,23.02
2023-03-04T09:41:56.275Z,22.75
2023-03-04T09:43:59.165Z,22.80
2023-03-04T09:46:05.548Z,23.27
2023-03-04T09:48:11.068Z,22.55
2023-03-04T09:50:15.329Z,22.50
2023-03-04T09:52:30.152Z,22.40
2023-03-04T09:54:57.355Z,20.50
2023-03-04T09:57:17.204Z,21.92
2023-03-04T09:59:26.471Z,21.50
2023-03-04T10:01:35.252Z,22.00
2023-03-04T10:03:48.174Z,22.23
2023-03-04T10:05:55.898Z,21.30
2023-03-04T10:08:01.762Z,22.58
2023-03-04T10:10:08.032Z,22.50
2023-03-04T10:12:15.888Z,21.38
2023-03-04T10:14:36.637Z,22.75
2023-03-04T10:16:44.073Z,21.60
2023-03-04T10:18:53.366Z,22.33
2023-03-04T10:21:01.537Z,22.15
2023-03-04T10:23:11.149Z,21.60
2023-03-04T10:25:20.165Z,21.75
2023-03-04T10:27:23.720Z,22.52
2023-03-04T10:29:26.261Z,22.75
2023-03-04T10:31:36.554Z,21.13
2023-03-04T10:33:41.125Z,21.83
2023-03-04T10:35:46.418Z,20.23
2023-03-04T10:37:52.033Z,22.88
2023-03-04T10:39:54.703Z,22.48
2023-03-04T10:42:00.996Z,22.30
2023-03-04T10:44:05.345Z,21.85
2023-03-04T10:46:11.395Z,21.60
2023-03-04T10:48:25.850Z,21.85
2023-03-04T10:50:29.723Z,20.42
2023-03-04T10:52:36.880Z,20.63
2023-03-04T10:54:48.396Z,19.73
2023-03-04T10:56:56.981Z,18.90
2023-03-04T10:59:41.408Z,20.60
2023-03-04T11:01:43.974Z,20.20
2023-03-04T11:03:50.118Z,20.85
2023-03-04T11:06:04.538Z,19.48
2023-03-04T11:08:07.083Z,20.55
2023-03-04T11:10:16.554Z,19.27
2023-03-04T11:12:22.191Z,21.02
2023-03-04T11:14:29.304Z,20.88
2023-03-04T11:16:34.877Z,20.38
2023-03-04T11:18:43.553Z,20.33
2023-03-04T11:20:49.310Z,23.20
2023-03-04T11:22:53.205Z,21.05
2023-03-04T11:25:00.461Z,21.45
2023-03-04T11:27:07.618Z,21.73
2023-03-04T11:29:16.793Z,23.15
2023-03-04T11:31:24.532Z,21.92
2023-03-04T11:33:34.552Z,22.60
2023-03-04T11:35:43.213Z,22.95
2023-03-04T11:37:51.672Z,22.42
2023-03-04T11:39:59.428Z,22.60
2023-03-04T11:42:07.215Z,22.60
2023-03-04T11:44:10.283Z,23.30
2023-03-04T11:46:54.629Z,22.08
2023-03-04T11:49:25.171Z,24.40
2023-03-04T11:51:35.962Z,22.77
2023-03-04T11:53:49.213Z,23.13
2023-03-04T11:55:59.402Z,22.92
2023-03-04T11:58:24.251Z,22.05
2023-03-04T12:00:37.075Z,22.25
2023-03-04T12:02:51.160Z,22.05
2023-03-04T12:05:19.544Z,22.02
2023-03-04T12:07:55.037Z,21.98
2023-03-04T12:10:07.943Z,22.00
2023-03-04T12:12:32.258Z,22.63
2023-03-04T12:14:44.828Z,23.00
2023-03-04T12:17:03.834Z,22.27
2023-03-04T12:19:23.160Z,23.10
2023-03-04T12:21:41.234Z,21.33
2023-03-04T12:24:10.294Z,23.30
2023-03-04T12:26:26.453Z,23.30
2023-03-04T12:28:41.700Z,23.35
2023-03-04T12:30:57.696Z,22.25
2023-03-04T12:33:13.494Z,24.60
2023-03-04T12:35:33.414Z,22.95
2023-03-04T12:38:08.285Z,23.63
2023-03-04T12:40:27.697Z,22.02
2023-03-04T12:42:41.325Z,24.17
2023-03-04T12:44:49.247Z,23.17
2023-03-04T12:47:11.877Z,23.27
2023-03-04T12:49:33.436Z,23.50
2023-03-04T12:51:44.521Z,25.10
2023-03-04T12:53:59.428Z,24.90
2023-03-04T12:56:05.825Z,23.85
2023-03-04T12:58:17.166Z,25.98
2023-03-04T13:00:32.332Z,25.95
2023-03-04T13:02:57.281Z,24.63
2023-03-04T13:05:08.824Z,24.45
2023-03-04T13:07:22.098Z,25.42
2023-03-04T13:09:30.345Z,25.10
2023-03-04T13:11:49.223Z,25.23
2023-03-04T13:14:04.267Z,24.83
2023-03-04T13:16:27.989Z,26.27
2023-03-04T13:18:34.937Z,25.52
2023-03-04T13:20:40.085Z,25.60
2023-03-04T13:22:54.416Z,25.73
2023-03-04T13:24:58.804Z,25.23
2023-03-04T13:27:01.425Z,25.70
2023-03-04T13:29:33.851Z,25.77
2023-03-04T13:32:00.435Z,25.45
2023-03-04T13:34:05.972Z,25.25
2023-03-04T13:36:28.802Z,25.65
2023-03-04T13:38:36.298Z,26.75
2023-03-04T13:40:40.227Z,25.70
2023-03-04T13:42:44.989Z,24.88
2023-03-04T13:45:06.231Z,25.30
2023-03-04T13:47:10.718Z,27.15
2023-03-04T13:49:24.684Z,25.30
2023-03-04T13:51:30.643Z,24.65
2023-03-04T13:53:42.118Z,26.77
2023-03-04T13:55:44.890Z,25.88
2023-03-04T13:57:51.224Z,26.20
2023-03-04T13:59:56.094Z,25.50
2023-03-04T14:02:01.984Z,25.65
2023-03-04T14:04:13.385Z,25.08
2023-03-04T14:06:22.479Z,28.40
2023-03-04T14:08:26.765Z,26.65
2023-03-04T14:10:29.561Z,27.33
2023-03-04T14:12:34.343Z,25.20
2023-03-04T14:14:43.416Z,27.08
2023-03-04T14:16:50.285Z,27.00
2023-03-04T14:19:01.998Z,27.35
2023-03-04T14:21:05.606Z,27.50
2023-03-04T14:23:24.838Z,26.88
2023-03-04T14:25:29.300Z,25.63
2023-03-04T14:27:35.372Z,28.77
2023-03-04T14:29:38.083Z,27.88
2023-03-04T14:31:40.847Z,28.60
2023-03-04T14:33:47.223Z,28.45
2023-03-04T14:35:52.436Z,28.65
2023-03-04T14:38:01.565Z,27.77
2023-03-04T14:40:08.372Z,29.25
2023-03-04T14:42:15.194Z,28.20
2023-03-04T14:44:27.517Z,29.42
2023-03-04T14:46:34.582Z,28.45
2023-03-04T14:48:37.142Z,28.15
2023-03-04T14:50:49.344Z,27.77
2023-03-04T14:53:14.440Z,30.48
2023-03-04T14:55:24.894Z,27.90
2023-03-04T14:57:33.930Z,28.48
2023-03-04T14:59:37.217Z,28.45
2023-03-04T15:01:39.833Z,29.52
2023-03-04T15:03:44.617Z,29.48
2023-03-04T15:05:47.217Z,30.60
2023-03-04T15:07:53.392Z,32.83
2023-03-04T15:09:57.092Z,33.45
2023-03-04T15:12:03.948Z,32.55
2023-03-04T15:14:07.751Z,34.53
2023-03-04T15:16:13.887Z,35.88
2023-03-04T15:18:26.056Z,33.58
2023-03-04T15:20:30.501Z,34.13
2023-03-04T15:22:34.164Z,34.58
2023-03-04T15:24:36.712Z,32.60
2023-03-04T15:26:41.720Z,31.65
2023-03-04T15:28:45.609Z,32.17
2023-03-04T15:30:48.235Z,29.80
2023-03-04T15:32:51.224Z,29.90
2023-03-04T15:34:53.821Z,30.38
2023-03-04T15:36:58.972Z,31.40
2023-03-04T15:39:01.526Z,30.55
2023-03-04T15:41:04.143Z,31.10
2023-03-04T15:43:10.152Z,29.13
2023-03-04T15:45:22.898Z,31.35
2023-03-04T15:47:25.713Z,28.42
2023-03-04T15:49:29.706Z,28.42
2023-03-04T15:51:33.116Z,28.17
2023-03-04T15:53:39.605Z,27.88
2023-03-04T15:55:46.089Z,27.33
2023-03-04T15:57:54.431Z,28.58
2023-03-04T15:59:56.969Z,28.48
2023-03-04T16:02:00.873Z,27.92
2023-03-04T16:04:03.544Z,27.48
2023-03-04T16:06:10.139Z,26.92
2023-03-04T16:08:14.554Z,26.27
2023-03-04T16:10:22.271Z,28.48
2023-03-04T16:12:27.569Z,27.08
2023-03-04T16:14:30.175Z,28.02
2023-03-04T16:16:32.746Z,28.40
2023-03-04T16:18:36.586Z,26.60
2023-03-04T16:20:40.285Z,27.33
2023-03-04T16:22:44.027Z,28.23
2023-03-04T16:24:49.380Z,27.63
2023-03-04T16:26:52.749Z,28.58
2023-03-04T16:28:55.356Z,26.95
2023-03-04T16:30:58.135Z,28.02
2023-03-04T16:33:00.679Z,27.42
2023-03-04T16:35:05.141Z,27.30
2023-03-04T16:37:14.689Z,29.05
2023-03-04T16:39:22.202Z,29.65
2023-03-04T16:41:28.016Z,27.50
2023-03-04T16:43:30.653Z,28.10
2023-03-04T16:45:36.066Z,29.38
2023-03-04T16:47:38.581Z,26.30
2023-03-04T16:49:41.464Z,27.40
2023-03-04T16:51:49.443Z,25.77
2023-03-04T16:53:54.504Z,26.13
2023-03-04T16:55:59.087Z,26.13
2023-03-04T16:58:01.627Z,26.25
2023-03-04T17:00:06.574Z,25.90
2023-03-04T17:02:14.799Z,26.38
2023-03-04T17:04:17.345Z,25.38
2023-03-04T17:06:21.396Z,28.00
2023-03-04T17:08:25.259Z,27.23
2023-03-04T17:10:27.806Z,26.25
2023-03-04T17:12:30.480Z,27.35
2023-03-04T17:14:33.152Z,27.33
2023-03-04T17:16:36.030Z,26.55
2023-03-04T17:18:39.320Z,28.55
2023-03-04T17:20:42.081Z,26.17
2023-03-04T17:22:45.194Z,26.88
2023-03-04T17:24:49.101Z,25.70
2023-03-04T17:26:51.766Z,26.30
2023-03-04T17:28:54.349Z,25.45
2023-03-04T17:30:56.961Z,27.85
2023-03-04T17:32:59.570Z,26.35
2023-03-04T17:35:03.089Z,27.63
2023-03-04T17:37:05.961Z,25.83
2023-03-04T17:39:08.788Z,25.70
2023-03-04T17:41:16.122Z,26.30
2023-03-04T17:43:18.934Z,26.38
2023-03-04T17:45:21.509Z,25.65
2023-03-04T17:47:24.067Z,24.42
2023-03-04T17:49:27.164Z,25.13
2023-03-04T17:51:31.372Z,26.00
2023-03-04T17:53:34.172Z,24.13
2023-03-04T17:55:36.730Z,25.38
2023-03-04T17:57:40.635Z,24.50
2023-03-04T17:59:43.251Z,25.60
2023-03-04T18:01:46.799Z,25.75
2023-03-04T18:03:49.516Z,23.75
2023-03-04T18:05:52.069Z,25.08
2023-03-04T18:07:54.617Z,24.52
2023-03-04T18:09:57.148Z,23.98
2023-03-04T18:11:59.705Z,23.33
2023-03-04T18:14:03.596Z,25.40
2023-03-04T18:16:06.525Z,24.58
2023-03-04T18:18:09.131Z,25.20
2023-03-04T18:20:12.880Z,24.70
2023-03-04T18:22:15.456Z,23.08
2023-03-04T18:24:18.014Z,23.58
2023-03-04T18:26:23.253Z,24.33
2023-03-04T18:28:26.253Z,22.40
2023-03-04T18:30:30.119Z,23.40
2023-03-04T18:32:49.398Z,24.15
2023-03-04T18:34:53.732Z,24.58
2023-03-04T18:36:56.296Z,25.35
2023-03-04T18:39:00.020Z,24.10
2023-03-04T18:41:04.811Z,23.67
2023-03-04T18:43:08.022Z,23.83
2023-03-04T18:45:11.864Z,22.73
2023-03-04T18:47:15.785Z,23.42
2023-03-04T18:49:21.240Z,23.27
2023-03-04T18:51:23.793Z,23.38
2023-03-04T18:53:28.124Z,22.95
2023-03-04T18:55:32.028Z,23.13
2023-03-04T18:57:34.879Z,23.52
2023-03-04T18:59:41.508Z,23.02
2023-03-04T19:01:44.596Z,24.10
2023-03-04T19:03:50.534Z,23.05
2023-03-04T19:05:53.222Z,24.42
2023-03-04T19:07:56.742Z,23.52
2023-03-04T19:09:59.311Z,23.38
2023-03-04T19:12:02.963Z,23.30
2023-03-04T19:14:05.952Z,23.05
2023-03-04T19:16:09.128Z,22.95
2023-03-04T19:18:11.874Z,24.00
2023-03-04T19:20:17.419Z,25.25
2023-03-04T19:22:20.036Z,23.23
2023-03-04T19:24:22.572Z,23.67
2023-03-04T19:26:25.343Z,24.08
2023-03-04T19:28:27.921Z,24.35
2023-03-04T19:30:30.916Z,23.30
2023-03-04T19:32:34.308Z,23.58
2023-03-04T19:34:36.902Z,23.92
2023-03-04T19:36:40.779Z,25.77
2023-03-04T19:38:43.997Z,23.25
2023-03-04T19:40:46.927Z,24.30
2023-03-04T19:42:49.485Z,22.75
2023-03-04T19:44:52.318Z,23.25
2023-03-04T19:46:54.854Z,24.02
2023-03-04T19:48:57.546Z,23.63
2023-03-04T19:51:00.106Z,24.00
2023-03-04T19:53:04.027Z,23.88
2023-03-04T19:55:07.553Z,23.90
2023-03-04T19:57:10.111Z,23.95
2023-03-04T19:59:12.648Z,24.48
2023-03-04T20:01:22.371Z,24.15
2023-03-04T20:03:25.376Z,24.35
2023-03-04T20:05:29.348Z,25.77
2023-03-04T20:07:31.903Z,27.00
2023-03-04T20:09:37.765Z,28.27
2023-03-04T20:11:54.947Z,28.90
2023-03-04T20:14:01.502Z,29.42
2023-03-04T20:16:09.029Z,27.77
2023-03-04T20:18:11.696Z,27.65
2023-03-04T20:20:14.948Z,26.33
2023-03-04T20:22:17.490Z,26.88
2023-03-04T20:24:22.937Z,27.98
2023-03-04T20:26:27.049Z,24.08
2023-03-04T20:28:29.973Z,26.73
2023-03-04T20:30:32.505Z,26.27
2023-03-04T20:32:35.947Z,27.98
2023-03-04T20:34:38.642Z,26.25
2023-03-04T20:36:41.286Z,25.45
2023-03-04T20:38:44.156Z,24.63
2023-03-04T20:40:46.708Z,24.73
2023-03-04T20:42:50.588Z,24.38
2023-03-04T20:44:53.158Z,24.02
2023-03-04T20:46:55.713Z,23.10
2023-03-04T20:49:00.345Z,23.08
2023-03-04T20:51:02.913Z,23.90
2023-03-04T20:53:05.473Z,25.40
2023-03-04T20:55:08.791Z,24.55
2023-03-04T20:57:11.551Z,25.25
2023-03-04T20:59:15.561Z,23.23
2023-03-04T21:01:18.934Z,24.75
2023-03-04T21:03:21.518Z,24.88
2023-03-04T21:05:24.187Z,25.15
2023-03-04T21:07:26.728Z,24.77
2023-03-04T21:09:29.690Z,24.90
2023-03-04T21:11:32.259Z,24.65
2023-03-04T21:13:36.872Z,25.25
2023-03-04T21:15:47.556Z,24.88
2023-03-04T21:17:50.154Z,25.45
2023-03-04T21:19:53.318Z,26.30
2023-03-04T21:21:57.892Z,26.95
2023-03-04T21:24:01.579Z,26.10
2023-03-04T21:26:04.242Z,26.92
2023-03-04T21:28:06.752Z,28.45
2023-03-04T21:30:11.484Z,27.52
2023-03-04T21:32:24.858Z,28.40
2023-03-04T21:34:33.882Z,27.52
2023-03-04T21:36:36.410Z,25.20
2023-03-04T21:38:39.565Z,26.30
2023-03-04T21:40:42.866Z,25.85
2023-03-04T21:42:45.442Z,25.33
2023-03-04T21:44:50.097Z,24.45
2023-03-04T21:46:53.587Z,25.58
2023-03-04T21:48:57.508Z,26.02
2023-03-04T21:51:03.022Z,26.55
2023-03-04T21:53:05.570Z,26.65
2023-03-04T21:55:08.760Z,29.27
2023-03-04T21:57:11.525Z,26.02
2023-03-04T21:59:17.326Z,26.35
2023-03-04T22:01:21.855Z,26.55
2023-03-04T22:03:24.868Z,26.42
2023-03-04T22:05:28.733Z,27.73
2023-03-04T22:07:31.277Z,26.83
2023-03-04T22:09:34.174Z,26.98
2023-03-04T22:11:36.843Z,27.10
2023-03-04T22:13:39.419Z,26.58
2023-03-04T22:15:43.555Z,26.52
2023-03-04T22:17:46.485Z,25.90
2023-03-04T22:19:49.075Z,26.33
2023-03-04T22:21:53.918Z,26.10
2023-03-04T22:23:56.644Z,26.77
2023-03-04T22:26:03.532Z,26.88
2023-03-04T22:28:06.531Z,24.38
2023-03-04T22:30:10.782Z,25.10
2023-03-04T22:32:13.599Z,26.15
2023-03-04T22:34:18.293Z,25.75
2023-03-04T22:36:20.840Z,26.00
2023-03-04T22:38:24.728Z,26.38
2023-03-04T22:40:27.361Z,26.52
2023-03-04T22:42:29.917Z,26.55
2023-03-04T22:44:34.359Z,26.52
2023-03-04T22:46:39.732Z,25.85
2023-03-04T22:48:42.413Z,26.63
2023-03-04T22:50:44.945Z,27.00
2023-03-04T22:52:48.175Z,24.95
2023-03-04T22:54:52.079Z,28.20
2023-03-04T22:56:54.605Z,26.77
2023-03-04T22:58:57.180Z,26.50
2023-03-04T23:00:59.971Z,26.70
2023-03-04T23:03:02.535Z,27.05
2023-03-04T23:05:05.538Z,26.38
2023-03-04T23:07:08.194Z,25.35
2023-03-04T23:09:10.849Z,26.25
2023-03-04T23:11:17.299Z,26.98
2023-03-04T23:13:19.831Z,26.65
2023-03-04T23:15:25.850Z,26.67
2023-03-04T23:17:28.835Z,26.65
2023-03-04T23:19:31.363Z,25.35
2023-03-04T23:21:34.554Z,28.10
2023-03-04T23:23:37.272Z,25.73
2023-03-04T23:25:39.862Z,25.92
2023-03-04T23:27:44.373Z,24.65
2023-03-04T23:29:46.904Z,25.30
2023-03-04T23:31:50.354Z,26.25
2023-03-04T23:33:57.084Z,27.52
2023-03-04T23:35:59.682Z,27.02
2023-03-04T23:38:02.330Z,27.33
2023-03-04T23:40:05.501Z,27.52
2023-03-04T23:42:08.375Z,27.10
2023-03-04T23:44:13.665Z,28.17
2023-03-04T23:46:16.676Z,28.95
2023-03-04T23:48:19.328Z,27.98
2023-03-04T23:50:21.875Z,27.63
2023-03-04T23:52:24.437Z,29.80
2023-03-04T23:54:27.083Z,29.48
2023-03-04T23:56:31.715Z,30.17
2023-03-04T23:58:35.718Z,29.70
